Time;durP1;ratioP1;P1;durP2;ratioP2;P2;SDS_P1;SDS_P2;PMS_P1;PMS_P2;Temp;Humidity;BMP_temperature;BMP_pressure;BME280_temperature;BME280_humidity;BME280_pressure;Samples;Min_cycle;Max_cycle;Signal;HPM_P1;HPM_P2
2024/03/24 00:01:24;;;;;;;11.30;8.10;;;;;;;11.60;93.39;99324.98;110990;1234;61928;-65
2024/03/24 00:03:51;;;;;;;12.80;8.60;;;;;;;11.55;94.31;99327.90;111028;1233;75157;-65
2024/03/24 00:06:18;;;;;;;10.50;7.60;;;;;;;11.55;94.88;99315.81;111008;1236;73044;-65
2024/03/24 00:08:45;;;;;;;12.90;9.00;;;;;;;11.56;95.17;99312.44;110965;1233;73179;-64
2024/03/24 00:11:12;;;;;;;11.70;8.60;;;;;;;11.55;95.92;99304.27;111050;1234;62024;-66
2024/03/24 00:13:39;;;;;;;11.20;8.40;;;;;;;11.51;96.65;99299.73;111014;1235;61864;-66
2024/03/24 00:16:09;;;;;;;10.80;7.70;;;;;;;11.48;97.07;99291.70;111062;1233;75884;-66
2024/03/24 00:18:36;;;;;;;12.00;8.00;;;;;;;11.46;97.51;99292.52;111049;1235;71103;-65
2024/03/24 00:21:04;;;;;;;10.70;7.70;;;;;;;11.43;97.90;99303.83;110853;1234;71480;-65
2024/03/24 00:23:30;;;;;;;10.60;8.10;;;;;;;11.40;98.16;99309.80;110976;1234;62038;-64
2024/03/24 00:25:58;;;;;;;10.00;7.90;;;;;;;11.38;98.41;99314.23;111005;1233;61991;-65
2024/03/24 00:28:28;;;;;;;10.30;8.00;;;;;;;11.35;98.98;99312.77;111008;1234;75344;-66
2024/03/24 00:30:56;;;;;;;10.90;8.20;;;;;;;11.35;99.45;99304.33;110995;1235;72613;-65
2024/03/24 00:33:22;;;;;;;13.50;8.20;;;;;;;11.34;99.87;99300.06;110824;1238;73062;-65
2024/03/24 00:35:49;;;;;;;11.40;9.10;;;;;;;11.33;100.00;99292.92;111032;1234;62000;-65
2024/03/24 00:38:16;;;;;;;12.60;8.30;;;;;;;11.31;100.00;99284.82;110952;1234;62010;-66
2024/03/24 00:40:43;;;;;;;12.00;8.30;;;;;;;11.29;100.00;99275.51;110969;1234;75544;-65
2024/03/24 00:43:10;;;;;;;10.80;8.20;;;;;;;11.27;100.00;99280.02;111043;1234;72608;-66
2024/03/24 00:45:37;;;;;;;13.30;8.60;;;;;;;11.25;100.00;99281.55;110957;1236;71580;-66
2024/03/24 00:48:04;;;;;;;11.50;8.30;;;;;;;11.23;100.00;99286.61;111043;1237;61882;-65
2024/03/24 00:50:31;;;;;;;10.90;8.40;;;;;;;11.22;100.00;99288.66;111019;1234;62036;-65
2024/03/24 00:52:58;;;;;;;11.30;8.20;;;;;;;11.22;100.00;99279.61;110998;1234;75285;-67
2024/03/24 00:55:26;;;;;;;11.40;8.40;;;;;;;11.24;100.00;99273.23;111022;1234;71094;-65
2024/03/24 00:57:53;;;;;;;11.90;8.50;;;;;;;11.25;100.00;99268.61;111078;1234;71348;-65
2024/03/24 01:00:20;;;;;;;10.20;8.20;;;;;;;11.22;100.00;99263.84;111031;1232;62033;-64
2024/03/24 01:02:49;;;;;;;13.40;8.60;;;;;;;11.19;100.00;99255.66;111032;1234;61836;-65
2024/03/24 01:05:16;;;;;;;12.20;8.80;;;;;;;11.15;100.00;99256.91;111001;1234;73731;-66
2024/03/24 01:07:47;;;;;;;12.10;8.40;;;;;;;11.13;100.00;99252.58;110986;1234;73490;-67
2024/03/24 01:10:14;;;;;;;12.20;8.80;;;;;;;11.11;100.00;99254.59;110824;1234;72540;-67
2024/03/24 01:12:49;;;;;;;14.20;9.20;;;;;;;11.10;100.00;99251.17;110994;1233;62034;-66
2024/03/24 01:15:16;;;;;;;13.10;9.20;;;;;;;11.09;100.00;99257.06;111026;1234;62134;-66
2024/03/24 01:17:44;;;;;;;11.40;8.50;;;;;;;11.07;100.00;99258.27;111033;1233;75223;-64
2024/03/24 01:20:11;;;;;;;12.90;9.40;;;;;;;11.05;100.00;99257.39;110611;1234;514874;-67
2024/03/24 01:22:39;;;;;;;11.40;9.00;;;;;;;11.03;100.00;99257.68;111046;1234;72647;-65
2024/03/24 01:25:06;;;;;;;13.40;9.20;;;;;;;11.02;100.00;99263.58;111010;1234;61897;-64
2024/03/24 01:27:34;;;;;;;13.50;9.30;;;;;;;11.01;100.00;99260.28;110911;1233;61924;-65
2024/03/24 01:30:01;;;;;;;13.90;10.10;;;;;;;11.00;100.00;99256.98;111077;1233;74066;-64
2024/03/24 01:32:28;;;;;;;13.80;10.60;;;;;;;11.03;100.00;99265.70;111017;1234;73245;-63
2024/03/24 01:34:55;;;;;;;14.20;10.90;;;;;;;10.96;100.00;99265.27;111122;1234;71311;-65
2024/03/24 01:37:22;;;;;;;13.90;10.30;;;;;;;10.92;100.00;99261.48;111036;1233;61907;-66
2024/03/24 01:39:50;;;;;;;14.80;10.60;;;;;;;10.89;100.00;99258.60;111017;1237;61888;-66
2024/03/24 01:42:16;;;;;;;14.90;10.90;;;;;;;10.85;100.00;99260.11;111036;1234;75274;-66
2024/03/24 01:44:43;;;;;;;13.40;9.60;;;;;;;10.81;100.00;99250.23;110997;1235;71428;-66
2024/03/24 01:47:10;;;;;;;14.80;10.30;;;;;;;10.77;100.00;99245.81;111057;1233;72774;-66
2024/03/24 01:49:38;;;;;;;12.40;9.60;;;;;;;10.72;100.00;99236.79;111032;1233;62000;-66
2024/03/24 01:52:06;;;;;;;12.70;9.90;;;;;;;10.67;100.00;99239.00;111042;1233;61921;-67
2024/03/24 01:54:34;;;;;;;12.50;9.40;;;;;;;10.62;100.00;99236.10;110972;1234;74015;-66
2024/03/24 01:57:01;;;;;;;12.00;9.30;;;;;;;10.57;100.00;99236.27;111018;1235;71127;-66
2024/03/24 01:59:28;;;;;;;13.20;9.50;;;;;;;10.52;100.00;99236.92;111032;1233;71310;-66
2024/03/24 02:01:55;;;;;;;11.60;8.70;;;;;;;10.48;100.00;99241.99;110983;1233;61843;-66
2024/03/24 02:04:22;;;;;;;13.90;9.30;;;;;;;10.45;100.00;99243.11;110984;1233;62004;-67
2024/03/24 02:06:49;;;;;;;14.80;9.50;;;;;;;10.41;100.00;99237.70;111033;1233;75914;-66
2024/03/24 02:09:16;;;;;;;13.10;9.60;;;;;;;10.39;100.00;99232.66;111044;1233;71876;-65
2024/03/24 02:11:44;;;;;;;14.70;9.70;;;;;;;10.38;100.00;99230.23;111031;1234;71951;-65
2024/03/24 02:14:11;;;;;;;12.40;9.40;;;;;;;10.36;100.00;99230.02;110729;1234;61727;-65
2024/03/24 02:16:38;;;;;;;12.70;9.20;;;;;;;10.32;100.00;99232.05;111014;1233;61910;-66
2024/03/24 02:19:04;;;;;;;15.10;10.80;;;;;;;10.29;100.00;99224.05;111025;1235;74785;-66
2024/03/24 02:21:31;;;;;;;13.30;10.30;;;;;;;10.25;100.00;99217.77;111037;1235;73156;-65
2024/03/24 02:23:58;;;;;;;13.40;9.40;;;;;;;10.23;100.00;99221.64;110884;1234;70418;-65
2024/03/24 02:26:25;;;;;;;12.80;9.70;;;;;;;10.21;100.00;99219.11;111018;1234;61884;-64
2024/03/24 02:28:54;;;;;;;15.90;11.10;;;;;;;10.20;100.00;99214.73;111053;1234;61905;-66
2024/03/24 02:31:21;;;;;;;14.10;10.40;;;;;;;10.19;100.00;99210.91;111046;1234;76278;-66
2024/03/24 02:33:48;;;;;;;14.10;10.50;;;;;;;10.17;100.00;99209.60;111022;1234;72991;-66
2024/03/24 02:36:15;;;;;;;14.20;10.70;;;;;;;10.16;100.00;99209.29;111039;1233;71283;-66
2024/03/24 02:38:43;;;;;;;15.50;11.00;;;;;;;10.16;100.00;99204.13;111000;1233;61988;-66
2024/03/24 02:41:10;;;;;;;15.30;11.10;;;;;;;10.14;100.00;99201.44;111051;1235;61918;-65
2024/03/24 02:43:37;;;;;;;13.20;9.90;;;;;;;10.12;100.00;99198.25;111007;1234;75493;-66
2024/03/24 02:46:03;;;;;;;14.20;10.70;;;;;;;10.08;100.00;99201.70;111004;1234;73499;-66
2024/03/24 02:48:31;;;;;;;13.40;10.20;;;;;;;10.04;100.00;99209.92;110981;1236;72789;-65
2024/03/24 02:50:58;;;;;;;14.40;10.60;;;;;;;10.03;100.00;99225.68;111038;1234;62371;-66
2024/03/24 02:53:25;;;;;;;13.90;10.80;;;;;;;9.98;100.00;99225.73;111068;1232;59734;-67
2024/03/24 02:55:52;;;;;;;14.20;11.10;;;;;;;9.94;100.00;99217.68;110882;1233;75326;-66
2024/03/24 02:58:19;;;;;;;16.10;11.10;;;;;;;9.95;100.00;99215.88;111052;1233;70988;-66
2024/03/24 03:00:46;;;;;;;15.60;11.40;;;;;;;9.94;100.00;99210.12;111047;1237;73403;-65
2024/03/24 03:03:13;;;;;;;15.20;11.20;;;;;;;10.18;100.00;99209.98;111026;1234;61902;-65
2024/03/24 03:05:40;;;;;;;15.70;11.30;;;;;;;10.31;100.00;99209.02;111020;1237;62100;-65
2024/03/24 03:08:08;;;;;;;15.20;10.80;;;;;;;10.34;100.00;99212.61;110978;1234;74094;-65
2024/03/24 03:10:35;;;;;;;15.10;11.10;;;;;;;10.34;99.94;99208.67;111036;1233;71894;-65
2024/03/24 03:13:04;;;;;;;14.50;11.10;;;;;;;10.34;99.74;99204.55;111005;1232;73165;-66
2024/03/24 03:15:32;;;;;;;14.50;10.60;;;;;;;10.35;99.66;99202.61;111036;1236;62090;-65
2024/03/24 03:17:58;;;;;;;15.60;10.40;;;;;;;10.39;99.33;99201.27;111003;1233;62145;-65
2024/03/24 03:20:29;;;;;;;14.50;10.70;;;;;;;10.40;98.68;99198.44;111103;1235;75222;-64
2024/03/24 03:22:56;;;;;;;14.00;10.40;;;;;;;10.41;98.24;99201.24;110998;1234;73229;-64
2024/03/24 03:25:23;;;;;;;15.10;10.90;;;;;;;10.40;97.87;99203.66;111004;1233;72406;-66
2024/03/24 03:27:50;;;;;;;16.70;10.40;;;;;;;10.40;97.55;99206.98;111007;1234;61914;-65
2024/03/24 03:30:17;;;;;;;14.30;10.70;;;;;;;10.36;97.46;99201.43;111020;1237;61991;-65
2024/03/24 03:32:44;;;;;;;14.90;10.50;;;;;;;10.33;97.55;99198.00;111012;1234;75897;-65
2024/03/24 03:35:11;;;;;;;15.80;11.20;;;;;;;10.31;97.53;99200.64;111054;1234;71567;-65
2024/03/24 03:37:38;;;;;;;15.00;11.10;;;;;;;10.27;97.43;99202.60;111024;1233;72636;-65
2024/03/24 03:40:06;;;;;;;17.80;11.90;;;;;;;9.84;99.72;99200.30;110865;1233;61975;-65
2024/03/24 03:42:33;;;;;;;13.80;10.50;;;;;;;9.67;100.00;99197.08;111056;1233;60737;-65
2024/03/24 03:45:00;;;;;;;15.30;11.30;;;;;;;9.61;100.00;99198.69;111034;1234;75162;-69
2024/03/24 03:47:29;;;;;;;15.50;11.00;;;;;;;9.59;100.00;99193.70;111052;1234;72676;-65
2024/03/24 03:49:57;;;;;;;16.00;10.80;;;;;;;9.69;100.00;99196.73;111024;1233;71280;-66
2024/03/24 03:52:29;;;;;;;16.20;11.20;;;;;;;9.76;100.00;99192.92;111036;1233;61976;-66
2024/03/24 03:55:04;;;;;;;17.70;11.90;;;;;;;9.52;100.00;99197.25;111005;1233;61839;-64
2024/03/24 03:57:31;;;;;;;15.90;11.30;;;;;;;9.47;100.00;99196.40;111066;1233;75463;-66
2024/03/24 04:00:00;;;;;;;14.90;10.80;;;;;;;9.45;100.00;99191.14;111025;1233;73605;-64
2024/03/24 04:02:27;;;;;;;13.40;10.50;;;;;;;9.44;100.00;99192.05;111022;1237;71377;-64
2024/03/24 04:04:54;;;;;;;14.70;10.70;;;;;;;9.42;100.00;99197.84;110961;1232;61998;-65
2024/03/24 04:07:21;;;;;;;13.90;10.60;;;;;;;9.42;100.00;99195.92;111034;1234;61160;-64
2024/03/24 04:09:48;;;;;;;15.30;11.60;;;;;;;9.42;100.00;99196.84;111049;1236;75361;-65
2024/03/24 04:12:15;;;;;;;16.00;11.60;;;;;;;9.43;100.00;99200.02;111033;1234;73207;-65
2024/03/24 04:14:42;;;;;;;14.10;10.60;;;;;;;9.45;100.00;99200.48;110999;1233;73000;-65
2024/03/24 04:17:09;;;;;;;16.80;11.40;;;;;;;9.46;100.00;99208.08;111011;1234;61853;-65
2024/03/24 04:19:35;;;;;;;16.40;11.20;;;;;;;9.47;100.00;99206.14;111025;1233;61947;-65
2024/03/24 04:22:03;;;;;;;15.30;11.00;;;;;;;9.47;100.00;99205.83;111001;1234;76244;-65
2024/03/24 04:24:30;;;;;;;13.30;10.20;;;;;;;9.48;100.00;99203.00;110952;1234;71935;-65
2024/03/24 04:26:57;;;;;;;15.90;11.50;;;;;;;9.49;100.00;99198.25;111016;1235;71080;-66
2024/03/24 04:29:25;;;;;;;14.60;11.00;;;;;;;9.49;100.00;99200.04;111012;1233;62350;-65
2024/03/24 04:31:52;;;;;;;15.70;11.00;;;;;;;9.50;100.00;99198.55;111061;1233;61876;-65
2024/03/24 04:34:19;;;;;;;16.70;11.80;;;;;;;9.47;100.00;99196.92;111014;1236;74276;-65
2024/03/24 04:36:46;;;;;;;14.70;10.90;;;;;;;9.46;100.00;99196.94;111108;1235;72664;-65
2024/03/24 04:39:18;;;;;;;15.50;11.70;;;;;;;9.46;100.00;99193.05;110997;1233;72611;-65
2024/03/24 04:41:46;;;;;;;17.10;11.50;;;;;;;9.45;100.00;99196.58;111011;1232;61908;-65
2024/03/24 04:44:13;;;;;;;15.10;10.80;;;;;;;9.45;100.00;99201.33;111013;1237;62121;-65
2024/03/24 04:46:40;;;;;;;15.40;11.40;;;;;;;9.45;100.00;99200.85;110906;1234;75591;-65
2024/03/24 04:49:08;;;;;;;15.60;11.60;;;;;;;9.45;100.00;99199.72;110863;1234;72689;-66
2024/03/24 04:51:39;;;;;;;17.40;11.40;;;;;;;9.47;100.00;99194.73;110995;1234;72964;-65
2024/03/24 04:54:06;;;;;;;16.00;11.40;;;;;;;9.50;100.00;99197.48;110991;1235;62049;-64
2024/03/24 04:56:35;;;;;;;16.00;11.40;;;;;;;9.52;100.00;99196.02;111050;1232;61986;-65
2024/03/24 04:59:02;;;;;;;16.10;11.40;;;;;;;9.53;100.00;99189.02;111065;1234;75174;-65
2024/03/24 05:01:29;;;;;;;16.80;11.50;;;;;;;9.54;100.00;99196.70;111068;1233;73444;-65
2024/03/24 05:03:57;;;;;;;17.10;11.80;;;;;;;9.54;100.00;99192.96;111037;1236;71173;-65
2024/03/24 05:06:24;;;;;;;13.50;10.70;;;;;;;9.54;100.00;99196.11;111030;1234;62111;-65
2024/03/24 05:08:51;;;;;;;13.60;9.90;;;;;;;9.53;100.00;99198.56;111023;1234;62103;-66
2024/03/24 05:11:18;;;;;;;15.00;11.10;;;;;;;9.50;100.00;99190.55;111082;1234;74910;-66
2024/03/24 05:13:48;;;;;;;15.70;11.40;;;;;;;9.45;100.00;99193.85;110984;1234;73181;-66
2024/03/24 05:16:17;;;;;;;14.50;10.80;;;;;;;9.41;100.00;99192.68;111022;1233;71060;-65
2024/03/24 05:18:43;;;;;;;13.80;10.60;;;;;;;9.39;100.00;99198.40;111017;1233;61892;-65
2024/03/24 05:21:10;;;;;;;16.10;11.80;;;;;;;9.37;100.00;99203.64;111030;1233;61885;-66
2024/03/24 05:23:37;;;;;;;15.60;11.50;;;;;;;9.36;100.00;99203.39;110980;1234;76232;-66
2024/03/24 05:26:12;;;;;;;16.80;12.10;;;;;;;9.35;100.00;99202.76;111025;1234;73962;-65
2024/03/24 05:28:54;;;;;;;16.90;11.80;;;;;;;9.34;100.00;99201.42;110818;1234;72926;-66
2024/03/24 05:31:22;;;;;;;17.10;12.50;;;;;;;9.35;100.00;99198.48;111039;1233;62030;-66
2024/03/24 05:33:49;;;;;;;18.40;12.60;;;;;;;9.36;100.00;99200.08;111065;1235;61895;-66
2024/03/24 05:36:19;;;;;;;17.90;12.10;;;;;;;9.34;100.00;99194.65;111037;1233;73884;-64
2024/03/24 05:38:46;;;;;;;18.10;12.70;;;;;;;9.33;100.00;99195.85;111030;1234;71153;-66
2024/03/24 05:41:14;;;;;;;16.00;11.70;;;;;;;9.30;100.00;99189.11;111001;1233;73196;-65
2024/03/24 05:43:42;;;;;;;16.00;11.90;;;;;;;9.24;100.00;99185.86;111005;1237;61021;-65
2024/03/24 05:46:09;;;;;;;15.00;10.60;;;;;;;9.20;100.00;99186.65;111038;1233;61911;-64
2024/03/24 05:48:36;;;;;;;15.10;10.80;;;;;;;9.14;100.00;99183.92;111037;1234;75763;-65
2024/03/24 05:51:08;;;;;;;17.20;12.50;;;;;;;9.08;100.00;99182.06;111101;1233;72950;-65
2024/03/24 05:53:35;;;;;;;18.50;12.20;;;;;;;9.08;100.00;99182.17;110817;1234;72386;-64
2024/03/24 05:56:02;;;;;;;17.60;12.10;;;;;;;9.05;100.00;99181.08;111054;1232;62026;-65
2024/03/24 05:58:29;;;;;;;16.10;11.40;;;;;;;9.02;100.00;99186.33;111017;1234;62013;-65
2024/03/24 06:00:56;;;;;;;18.00;12.00;;;;;;;9.00;100.00;99184.00;111023;1235;75314;-64
2024/03/24 06:03:24;;;;;;;16.40;11.20;;;;;;;9.00;100.00;99184.80;111023;1235;70325;-64
2024/03/24 06:05:51;;;;;;;16.50;11.70;;;;;;;9.00;100.00;99183.20;111062;1234;71453;-66
2024/03/24 06:08:18;;;;;;;16.50;11.80;;;;;;;9.01;100.00;99180.59;111009;1236;61992;-67
2024/03/24 06:10:48;;;;;;;17.00;12.30;;;;;;;9.01;100.00;99174.36;111020;1234;62084;-65
2024/03/24 06:13:15;;;;;;;16.80;11.90;;;;;;;9.00;100.00;99172.12;111009;1235;74348;-65
2024/03/24 06:15:42;;;;;;;17.90;12.90;;;;;;;9.04;100.00;99168.19;111031;1234;72534;-65
2024/03/24 06:18:09;;;;;;;16.20;11.90;;;;;;;9.09;100.00;99165.06;110985;1234;72967;-65
2024/03/24 06:20:38;;;;;;;17.70;12.50;;;;;;;9.14;100.00;99168.20;111060;1233;62024;-65
2024/03/24 06:23:05;;;;;;;17.60;11.40;;;;;;;9.20;100.00;99165.49;111077;1232;61747;-65
2024/03/24 06:25:33;;;;;;;17.80;12.80;;;;;;;9.24;100.00;99168.06;111055;1234;75083;-65
2024/03/24 06:28:03;;;;;;;16.00;11.50;;;;;;;9.24;100.00;99169.08;111060;1234;72453;-65
2024/03/24 06:30:30;;;;;;;16.20;11.40;;;;;;;9.22;100.00;99174.10;111041;1237;72644;-64
2024/03/24 06:32:57;;;;;;;16.80;11.50;;;;;;;9.25;100.00;99179.03;111042;1233;62106;-64
2024/03/24 06:35:24;;;;;;;17.30;11.10;;;;;;;9.28;100.00;99179.95;111031;1234;61108;-66
2024/03/24 06:37:51;;;;;;;17.30;11.90;;;;;;;9.31;100.00;99176.46;110979;1235;75785;-65
2024/03/24 06:40:19;;;;;;;16.40;11.40;;;;;;;9.35;100.00;99176.64;111062;1236;71516;-64
2024/03/24 06:43:02;;;;;;;15.90;11.70;;;;;;;9.40;100.00;99175.58;111032;1234;72341;-65
2024/03/24 06:45:31;;;;;;;17.30;11.90;;;;;;;9.48;100.00;99176.55;111047;1237;61678;-65
2024/03/24 06:48:09;;;;;;;16.40;11.50;;;;;;;9.47;100.00;99172.95;111063;1232;60616;-66
2024/03/24 06:50:37;;;;;;;14.40;10.80;;;;;;;9.47;100.00;99171.28;111075;1233;73936;-64
2024/03/24 06:53:04;;;;;;;15.90;11.20;;;;;;;9.51;100.00;99166.44;111056;1236;72349;-65
2024/03/24 06:55:31;;;;;;;15.80;11.20;;;;;;;9.53;100.00;99163.55;111022;1233;71766;-64
2024/03/24 06:57:58;;;;;;;17.20;12.30;;;;;;;9.54;100.00;99159.96;111028;1234;62559;-65
2024/03/24 07:00:25;;;;;;;16.60;12.30;;;;;;;9.54;100.00;99155.34;111031;1234;61864;-66
2024/03/24 07:02:52;;;;;;;17.10;11.50;;;;;;;9.55;100.00;99152.05;111063;1234;73916;-66
2024/03/24 07:05:19;;;;;;;16.10;10.50;;;;;;;9.61;100.00;99153.11;111094;1233;71132;-65
2024/03/24 07:07:48;;;;;;;16.30;11.60;;;;;;;9.65;100.00;99162.35;111063;1234;73103;-65
2024/03/24 07:10:14;;;;;;;17.40;11.00;;;;;;;9.69;100.00;99163.75;111080;1234;62067;-66
2024/03/24 07:12:41;;;;;;;16.10;11.50;;;;;;;9.75;100.00;99165.05;111032;1234;60754;-65
2024/03/24 07:15:09;;;;;;;18.40;12.40;;;;;;;9.78;100.00;99172.60;111069;1235;74529;-65
2024/03/24 07:17:36;;;;;;;16.40;11.40;;;;;;;9.75;99.60;99170.45;111086;1234;72476;-66
2024/03/24 07:20:04;;;;;;;17.30;11.70;;;;;;;9.74;99.75;99170.02;111057;1236;72866;-66
2024/03/24 07:22:31;;;;;;;18.00;11.70;;;;;;;9.79;100.00;99166.76;111085;1236;61929;-66
2024/03/24 07:24:58;;;;;;;15.60;10.40;;;;;;;9.88;100.00;99164.52;111114;1234;61980;-67
2024/03/24 07:27:25;;;;;;;15.10;10.90;;;;;;;9.94;100.00;99165.52;111064;1236;75360;-63
2024/03/24 07:29:53;;;;;;;17.50;11.50;;;;;;;9.98;99.99;99162.73;111099;1233;73045;-64
2024/03/24 07:32:20;;;;;;;16.00;11.40;;;;;;;10.03;99.73;99154.39;110899;1233;72407;-66
2024/03/24 07:34:47;;;;;;;15.60;10.40;;;;;;;10.12;99.90;99153.16;111041;1233;61725;-66
2024/03/24 07:37:14;;;;;;;14.60;10.90;;;;;;;10.23;99.63;99149.59;111017;1233;61914;-65
2024/03/24 07:39:41;;;;;;;14.30;10.10;;;;;;;10.32;99.38;99140.05;111075;1233;73183;-65
2024/03/24 07:42:09;;;;;;;15.90;10.60;;;;;;;10.42;98.88;99132.27;111108;1234;71477;-67
2024/03/24 07:44:36;;;;;;;15.30;10.70;;;;;;;10.51;98.18;99129.88;111037;1236;71383;-67
2024/03/24 07:47:04;;;;;;;14.40;10.70;;;;;;;10.57;96.86;99129.63;111073;1233;61849;-65
2024/03/24 07:49:35;;;;;;;14.90;9.80;;;;;;;10.62;96.20;99122.67;111045;1234;62062;-64
2024/03/24 07:52:01;;;;;;;12.80;9.70;;;;;;;10.69;95.36;99121.95;111091;1235;74183;-64
2024/03/24 07:54:28;;;;;;;15.20;11.10;;;;;;;10.74;94.54;99121.02;111043;1233;71134;-66
2024/03/24 07:56:59;;;;;;;17.10;10.70;;;;;;;10.81;94.09;99115.63;111040;1234;72400;-67
2024/03/24 07:59:26;;;;;;;13.90;9.60;;;;;;;10.88;93.58;99107.92;110977;1234;62771;-66
2024/03/24 08:01:53;;;;;;;15.20;11.40;;;;;;;10.92;91.99;99113.33;111081;1233;60085;-65
2024/03/24 08:04:20;;;;;;;14.80;9.90;;;;;;;10.89;91.04;99114.68;111088;1232;75406;-65
2024/03/24 08:06:47;;;;;;;14.40;10.90;;;;;;;10.87;90.32;99116.59;111037;1236;73612;-65
2024/03/24 08:09:14;;;;;;;16.60;11.00;;;;;;;10.87;90.21;99113.27;111001;1234;72603;-65
2024/03/24 08:11:41;;;;;;;15.30;11.20;;;;;;;10.92;90.81;99108.64;111070;1233;61611;-65
2024/03/24 08:14:08;;;;;;;15.20;10.50;;;;;;;10.97;91.11;99104.42;111030;1232;61846;-65
2024/03/24 08:16:35;;;;;;;15.30;10.70;;;;;;;11.04;91.81;99103.02;111027;1237;75363;-67
2024/03/24 08:19:03;;;;;;;13.00;9.40;;;;;;;11.10;92.45;99100.56;111065;1233;71781;-65
2024/03/24 08:21:31;;;;;;;14.90;10.60;;;;;;;11.14;92.72;99103.59;110999;1232;73550;-65
2024/03/24 08:23:58;;;;;;;15.90;10.90;;;;;;;11.19;93.32;99096.77;111027;1235;61991;-66
2024/03/24 08:26:25;;;;;;;14.00;10.70;;;;;;;11.28;94.01;99091.82;111038;1233;62109;-66
2024/03/24 08:28:52;;;;;;;15.70;11.50;;;;;;;11.43;94.35;99088.18;111055;1233;75194;-67
2024/03/24 08:31:20;;;;;;;14.40;10.80;;;;;;;11.60;94.33;99086.64;111068;1235;70994;-65
2024/03/24 08:33:47;;;;;;;15.10;11.10;;;;;;;11.75;93.61;99089.16;111056;1234;73620;-65
2024/03/24 08:36:14;;;;;;;16.20;10.70;;;;;;;11.89;92.98;99085.14;111018;1232;62030;-66
2024/03/24 08:38:41;;;;;;;14.10;10.60;;;;;;;12.03;91.92;99080.48;111041;1234;62185;-65
2024/03/24 08:41:12;;;;;;;13.80;9.10;;;;;;;12.17;91.15;99066.59;111053;1234;74222;-64
2024/03/24 08:43:41;;;;;;;14.70;10.70;;;;;;;12.30;89.79;99064.77;111134;1234;73654;-66
2024/03/24 08:46:07;;;;;;;16.50;11.30;;;;;;;12.41;88.71;99064.23;110973;1234;72382;-66
2024/03/24 08:48:34;;;;;;;15.30;11.80;;;;;;;12.51;87.02;99056.13;111033;1234;62028;-66
2024/03/24 08:51:13;;;;;;;14.00;11.40;;;;;;;12.59;84.98;99065.83;111015;1233;61923;-67
2024/03/24 08:53:40;;;;;;;13.90;10.90;;;;;;;12.60;82.69;99073.52;111024;1234;75337;-66
2024/03/24 08:56:07;;;;;;;14.40;10.80;;;;;;;12.56;81.04;99069.34;111029;1234;71394;-67
2024/03/24 08:58:34;;;;;;;15.30;10.70;;;;;;;12.47;80.20;99074.42;111043;1235;72608;-65
2024/03/24 09:01:03;;;;;;;14.40;11.00;;;;;;;12.41;80.49;99077.52;111021;1235;61864;-66
2024/03/24 09:03:30;;;;;;;14.60;10.30;;;;;;;12.33;80.86;99071.34;111062;1234;61907;-66
2024/03/24 09:05:57;;;;;;;14.90;10.40;;;;;;;12.28;81.37;99070.17;111064;1235;75477;-66
2024/03/24 09:08:24;;;;;;;14.70;10.80;;;;;;;12.25;81.36;99074.91;111076;1235;72434;-66
2024/03/24 09:10:52;;;;;;;14.20;9.80;;;;;;;12.20;80.84;99064.58;111074;1233;72795;-65
2024/03/24 09:13:19;;;;;;;15.50;10.60;;;;;;;12.20;81.30;99071.50;111058;1234;62159;-66
2024/03/24 09:15:47;;;;;;;16.50;10.80;;;;;;;12.16;81.15;99072.64;111110;1234;61990;-66
2024/03/24 09:18:14;;;;;;;12.80;10.10;;;;;;;12.12;81.60;99072.11;111034;1233;74397;-66
2024/03/24 09:20:42;;;;;;;13.30;10.40;;;;;;;12.07;82.17;99071.05;111073;1233;72567;-66
2024/03/24 09:23:09;;;;;;;14.00;10.30;;;;;;;12.02;83.31;99056.92;111017;1236;73567;-66
2024/03/24 09:25:37;;;;;;;14.80;10.60;;;;;;;12.06;84.49;99058.86;111016;1233;61869;-67
2024/03/24 09:28:04;;;;;;;12.30;9.90;;;;;;;12.13;85.52;99056.77;111031;1233;61876;-66
2024/03/24 09:30:32;;;;;;;13.70;10.70;;;;;;;12.21;86.17;99054.61;111017;1234;75310;-65
2024/03/24 09:32:59;;;;;;;13.20;10.30;;;;;;;12.30;86.41;99051.70;111075;1234;72606;-65
2024/03/24 09:35:26;;;;;;;14.60;9.90;;;;;;;12.37;86.22;99048.00;111041;1237;72579;-66
2024/03/24 09:37:53;;;;;;;13.90;10.50;;;;;;;12.42;85.64;99043.36;111013;1236;62026;-66
2024/03/24 09:40:21;;;;;;;15.20;10.50;;;;;;;12.47;85.48;99041.98;111047;1234;61867;-65
2024/03/24 09:42:49;;;;;;;12.80;9.60;;;;;;;12.52;85.68;99047.73;111028;1235;74290;-67
2024/03/24 09:45:17;;;;;;;13.20;10.30;;;;;;;12.54;86.09;99043.54;111049;1234;71633;-65
2024/03/24 09:47:44;;;;;;;13.60;10.00;;;;;;;12.58;86.82;99042.98;111027;1237;72270;-65
2024/03/24 09:50:11;;;;;;;15.50;10.80;;;;;;;12.61;86.77;99043.50;110868;1237;61918;-66
2024/03/24 09:52:38;;;;;;;13.60;10.30;;;;;;;12.66;87.25;99034.67;111027;1234;62028;-66
2024/03/24 09:55:06;;;;;;;14.20;10.80;;;;;;;12.71;87.38;99035.69;110852;1233;75766;-65
2024/03/24 09:57:35;;;;;;;12.80;9.90;;;;;;;12.74;87.29;99046.77;111047;1234;72573;-66
2024/03/24 10:00:06;;;;;;;14.70;10.30;;;;;;;12.76;87.09;99047.30;111032;1233;72643;-67
2024/03/24 10:02:42;;;;;;;15.30;10.40;;;;;;;12.79;87.13;99054.02;111067;1234;61991;-66
2024/03/24 10:05:09;;;;;;;14.30;10.90;;;;;;;12.85;87.52;99056.75;111002;1234;61847;-67
2024/03/24 10:07:36;;;;;;;13.20;9.90;;;;;;;12.96;88.22;99054.16;110839;1234;74131;-65
2024/03/24 10:10:04;;;;;;;12.90;9.90;;;;;;;13.04;86.87;99049.13;111066;1234;71485;-67
2024/03/24 10:12:32;;;;;;;12.70;9.20;;;;;;;13.09;86.13;99046.05;110854;1238;72483;-66
2024/03/24 10:15:23;;;;;;;12.50;9.80;;;;;;;13.11;85.02;99043.04;111000;1235;62023;-65
2024/03/24 10:18:04;;;;;;;13.10;9.90;;;;;;;13.13;84.03;99042.66;110935;1234;61939;-66
2024/03/24 10:20:31;;;;;;;13.70;9.20;;;;;;;13.09;83.09;99042.70;111059;1236;75630;-65
2024/03/24 10:22:58;;;;;;;11.90;9.80;;;;;;;13.07;83.18;99038.95;111011;1236;71664;-66
2024/03/24 10:25:28;;;;;;;12.20;9.70;;;;;;;13.06;83.08;99032.61;111053;1234;72614;-67
2024/03/24 10:27:56;;;;;;;12.90;9.20;;;;;;;13.09;83.73;99023.26;111137;1234;63025;-65
2024/03/24 10:30:23;;;;;;;13.00;9.60;;;;;;;13.16;83.97;99014.63;111026;1234;60766;-68
2024/03/24 10:32:50;;;;;;;13.10;9.70;;;;;;;13.19;83.49;99015.04;110849;1232;75154;-66
2024/03/24 10:35:17;;;;;;;11.90;9.10;;;;;;;13.18;82.32;99016.37;111044;1234;71644;-66
2024/03/24 10:37:44;;;;;;;11.60;8.60;;;;;;;13.14;81.76;99020.91;111013;1234;72634;-66
2024/03/24 10:40:14;;;;;;;14.30;10.10;;;;;;;13.11;81.17;99028.88;111070;1235;61857;-66
2024/03/24 10:42:49;;;;;;;13.20;10.40;;;;;;;13.06;81.21;99034.32;111026;1232;60762;-65
2024/03/24 10:45:22;;;;;;;13.30;9.90;;;;;;;12.96;81.20;99030.27;111035;1234;74424;-67
2024/03/24 10:48:03;;;;;;;12.30;9.80;;;;;;;12.87;81.73;99029.41;110990;1237;73917;-65
2024/03/24 10:50:30;;;;;;;13.80;9.90;;;;;;;12.87;82.23;99034.84;111046;1233;72721;-65
2024/03/24 10:52:59;;;;;;;14.70;10.70;;;;;;;12.84;82.14;99028.17;110998;1233;62144;-66
2024/03/24 10:55:26;;;;;;;13.60;9.70;;;;;;;12.77;82.60;99024.08;110726;1235;60748;-67
2024/03/24 10:57:53;;;;;;;13.60;10.40;;;;;;;12.75;83.13;99021.99;110780;1234;75402;-65
2024/03/24 11:00:27;;;;;;;12.70;9.70;;;;;;;12.74;83.90;99019.54;111034;1233;72640;-65
2024/03/24 11:02:58;;;;;;;12.00;9.80;;;;;;;12.80;84.37;99020.46;111025;1233;71953;-65
2024/03/24 11:05:25;;;;;;;13.70;10.20;;;;;;;12.85;84.86;99015.91;111032;1237;62090;-66
2024/03/24 11:07:53;;;;;;;11.50;8.80;;;;;;;12.90;84.27;99009.64;110854;1234;61972;-65
2024/03/24 11:10:20;;;;;;;12.20;8.50;;;;;;;12.89;84.23;99010.17;111038;1234;74313;-67
2024/03/24 11:12:49;;;;;;;13.10;9.70;;;;;;;12.88;83.69;99011.10;110990;1234;72904;-66